createdAt,value
2018-10-17T00:01:56.077Z,91.40
2018-10-17T00:04:24.626Z,91.40
2018-10-17T00:06:53.177Z,91.30
2018-10-17T00:09:21.756Z,91.40
2018-10-17T00:11:50.235Z,91.50
2018-10-17T00:14:18.780Z,91.30
2018-10-17T00:16:47.375Z,91.40
2018-10-17T00:19:15.949Z,91.50
2018-10-17T00:21:44.467Z,91.50
2018-10-17T00:24:13.029Z,91.60
2018-10-17T00:26:41.549Z,91.80
2018-10-17T00:29:10.128Z,91.70
2018-10-17T00:31:38.604Z,91.60
2018-10-17T00:34:07.118Z,91.50
2018-10-17T00:36:35.624Z,91.50
2018-10-17T00:39:05.581Z,91.50
2018-10-17T00:41:34.124Z,91.60
2018-10-17T00:44:02.693Z,91.60
2018-10-17T00:46:31.200Z,91.70
2018-10-17T00:48:59.738Z,91.50
2018-10-17T00:51:28.250Z,91.40
2018-10-17T00:53:56.762Z,91.40
2018-10-17T00:56:25.308Z,91.80
2018-10-17T00:59:04.058Z,91.70
2018-10-17T01:01:32.559Z,91.80
2018-10-17T01:04:01.410Z,91.80
2018-10-17T01:06:30.389Z,92.00
2018-10-17T01:08:58.920Z,91.80
2018-10-17T01:11:27.752Z,91.70
2018-10-17T01:13:56.329Z,91.90
2018-10-17T01:16:24.871Z,92.40
2018-10-17T01:18:53.492Z,92.10
2018-10-17T01:21:21.968Z,91.90
2018-10-17T01:23:50.530Z,91.80
2018-10-17T01:26:19.026Z,91.80
2018-10-17T01:28:47.687Z,91.80
2018-10-17T01:31:16.242Z,91.90
2018-10-17T01:33:44.816Z,91.80
2018-10-17T01:36:13.312Z,91.90
2018-10-17T01:38:41.869Z,91.70
2018-10-17T01:41:10.437Z,91.70
2018-10-17T01:43:38.985Z,91.70
2018-10-17T01:46:07.480Z,91.70
2018-10-17T01:48:36.009Z,91.90
2018-10-17T01:51:04.588Z,92.30
2018-10-17T01:53:33.186Z,92.60
2018-10-17T01:56:01.711Z,92.50
2018-10-17T01:58:30.223Z,92.30
2018-10-17T02:00:58.794Z,92.20
2018-10-17T02:03:27.268Z,92.10
2018-10-17T02:05:55.828Z,92.10
2018-10-17T02:08:24.573Z,92.00
2018-10-17T02:10:53.185Z,92.10
2018-10-17T02:13:22.549Z,92.80
2018-10-17T02:15:53.528Z,92.30
2018-10-17T02:18:22.289Z,92.10
2018-10-17T02:20:51.239Z,92.40
2018-10-17T02:23:19.735Z,92.90
2018-10-17T02:25:48.229Z,92.40
2018-10-17T02:28:16.777Z,92.30
2018-10-17T02:30:45.276Z,92.10
2018-10-17T02:33:13.827Z,92.00
2018-10-17T02:35:42.443Z,91.90
2018-10-17T02:38:10.983Z,91.80
2018-10-17T02:40:39.483Z,91.80
2018-10-17T02:43:07.996Z,91.80
2018-10-17T02:45:36.588Z,91.60
2018-10-17T02:48:05.139Z,91.50
2018-10-17T02:50:33.631Z,91.50
2018-10-17T02:53:02.223Z,91.40
2018-10-17T02:55:30.857Z,91.80
2018-10-17T02:57:59.383Z,91.70
2018-10-17T03:00:28.021Z,91.30
2018-10-17T03:02:56.536Z,91.30
2018-10-17T03:05:25.033Z,91.30
2018-10-17T03:07:53.578Z,91.40
2018-10-17T03:10:22.100Z,91.40
2018-10-17T03:12:50.637Z,91.30
2018-10-17T03:15:19.131Z,91.30
2018-10-17T03:17:47.671Z,91.30
2018-10-17T03:20:16.196Z,91.30
2018-10-17T03:22:44.719Z,91.30
2018-10-17T03:25:13.343Z,91.30
2018-10-17T03:27:41.900Z,91.30
2018-10-17T03:30:10.434Z,91.30
2018-10-17T03:32:38.960Z,91.30
2018-10-17T03:35:07.835Z,91.30
2018-10-17T03:37:36.663Z,91.30
2018-10-17T03:40:06.013Z,91.30
2018-10-17T03:42:34.843Z,91.70
2018-10-17T03:45:03.362Z,91.40
2018-10-17T03:47:31.892Z,91.50
2018-10-17T03:50:00.434Z,91.50
2018-10-17T03:52:28.978Z,91.50
2018-10-17T03:54:57.499Z,91.50
2018-10-17T03:57:26.000Z,91.50
2018-10-17T03:59:54.538Z,91.50
2018-10-17T04:02:23.049Z,91.50
2018-10-17T04:04:51.617Z,91.60
2018-10-17T04:07:20.261Z,91.70
2018-10-17T04:09:48.780Z,91.60
2018-10-17T04:12:17.298Z,91.90
2018-10-17T04:14:45.828Z,91.50
2018-10-17T04:17:14.448Z,91.70
2018-10-17T04:19:42.922Z,91.70
2018-10-17T04:22:11.427Z,91.80
2018-10-17T04:24:40.032Z,91.80
2018-10-17T04:27:08.549Z,91.70
2018-10-17T04:29:37.079Z,91.80
2018-10-17T04:32:06.364Z,91.90
2018-10-17T04:34:34.920Z,91.90
2018-10-17T04:37:03.433Z,91.90
2018-10-17T04:39:31.984Z,91.80
2018-10-17T04:42:00.527Z,91.90
2018-10-17T04:44:29.069Z,91.90
2018-10-17T04:46:57.608Z,91.80
2018-10-17T04:49:27.096Z,91.90
2018-10-17T04:51:55.660Z,91.90
2018-10-17T04:54:24.197Z,91.80
2018-10-17T04:56:52.691Z,92.00
2018-10-17T04:59:21.284Z,92.00
2018-10-17T05:01:49.783Z,92.00
2018-10-17T05:04:18.339Z,92.10
2018-10-17T05:06:46.928Z,91.90
2018-10-17T05:09:15.449Z,92.00
2018-10-17T05:11:43.949Z,92.00
2018-10-17T05:14:12.476Z,91.90
2018-10-17T05:16:41.052Z,91.90
2018-10-17T05:19:09.653Z,92.00
2018-10-17T05:21:38.113Z,91.90
2018-10-17T05:24:06.644Z,91.90
2018-10-17T05:26:35.206Z,91.80
2018-10-17T05:29:03.744Z,91.80
2018-10-17T05:31:32.239Z,91.80
2018-10-17T05:34:00.772Z,91.80
2018-10-17T05:36:29.279Z,91.90
2018-10-17T05:38:57.800Z,91.70
2018-10-17T05:41:27.114Z,91.70
2018-10-17T05:43:55.599Z,91.70
2018-10-17T05:46:24.241Z,91.70
2018-10-17T05:48:52.825Z,91.70
2018-10-17T05:51:21.372Z,91.70
2018-10-17T05:53:49.883Z,91.70
2018-10-17T05:56:18.432Z,91.80
2018-10-17T05:58:46.941Z,91.80
2018-10-17T06:01:15.481Z,91.80
2018-10-17T06:03:43.993Z,91.90
2018-10-17T06:06:13.345Z,91.90
2018-10-17T06:08:41.968Z,91.90
2018-10-17T06:11:10.563Z,91.90
2018-10-17T06:13:39.019Z,91.90
2018-10-17T06:16:07.556Z,91.90
2018-10-17T06:18:36.070Z,91.90
2018-10-17T06:21:05.115Z,91.90
2018-10-17T06:23:34.014Z,91.70
2018-10-17T06:26:02.584Z,91.80
2018-10-17T06:28:31.082Z,91.10
2018-10-17T06:30:59.610Z,91.30
2018-10-17T06:33:28.125Z,91.30
2018-10-17T06:35:56.665Z,91.30
2018-10-17T06:38:25.162Z,91.30
2018-10-17T06:40:53.914Z,91.30
2018-10-17T06:43:22.485Z,91.60
2018-10-17T06:45:51.052Z,91.40
2018-10-17T06:48:19.655Z,91.20
2018-10-17T06:50:48.218Z,91.10
2018-10-17T06:53:16.814Z,91.10
2018-10-17T06:55:45.244Z,91.00
2018-10-17T06:58:13.777Z,90.90
2018-10-17T07:00:42.424Z,91.00
2018-10-17T07:03:10.944Z,91.00
2018-10-17T07:05:39.469Z,91.20
2018-10-17T07:08:07.985Z,90.90
2018-10-17T07:10:36.564Z,90.90
2018-10-17T07:13:05.173Z,90.90
2018-10-17T07:15:33.849Z,91.10
2018-10-17T07:18:02.271Z,91.60
2018-10-17T07:20:30.760Z,92.00
2018-10-17T07:22:59.294Z,91.50
2018-10-17T07:25:27.951Z,91.50
2018-10-17T07:27:56.476Z,91.20
2018-10-17T07:30:25.083Z,91.30
2018-10-17T07:32:53.654Z,91.20
2018-10-17T07:35:22.179Z,91.40
2018-10-17T07:37:50.741Z,91.00
2018-10-17T07:40:19.396Z,90.90
2018-10-17T07:42:47.940Z,91.00
2018-10-17T07:45:16.672Z,90.80
2018-10-17T07:47:45.260Z,90.80
2018-10-17T07:50:13.851Z,90.70
2018-10-17T07:52:42.477Z,90.60
2018-10-17T07:55:12.262Z,90.40
2018-10-17T07:57:40.919Z,90.30
2018-10-17T08:00:11.950Z,90.20
2018-10-17T08:02:41.411Z,90.20
2018-10-17T08:05:10.899Z,90.20
2018-10-17T08:07:39.447Z,90.00
2018-10-17T08:10:09.301Z,89.70
2018-10-17T08:12:38.114Z,89.50
2018-10-17T08:15:07.736Z,88.40
2018-10-17T08:17:36.511Z,88.10
2018-10-17T08:20:05.950Z,87.60
2018-10-17T08:22:34.481Z,86.60
2018-10-17T08:25:03.006Z,86.20
2018-10-17T08:27:31.705Z,85.40
2018-10-17T08:30:00.178Z,85.60
2018-10-17T08:32:28.729Z,85.40
2018-10-17T08:34:57.235Z,85.10
2018-10-17T08:37:26.600Z,84.90
2018-10-17T08:39:55.020Z,83.60
2018-10-17T08:42:23.588Z,83.10
2018-10-17T08:44:52.151Z,82.30
2018-10-17T08:47:20.684Z,81.70
2018-10-17T08:49:49.213Z,81.60
2018-10-17T08:52:17.750Z,80.80
2018-10-17T08:54:46.284Z,80.60
2018-10-17T08:57:14.824Z,79.50
2018-10-17T08:59:43.380Z,78.30
2018-10-17T09:02:11.958Z,78.10
2018-10-17T09:04:40.453Z,77.30
2018-10-17T09:07:08.996Z,76.30
2018-10-17T09:09:37.505Z,75.90
2018-10-17T09:12:06.031Z,75.60
2018-10-17T09:14:34.590Z,74.90
2018-10-17T09:17:03.113Z,73.60
2018-10-17T09:19:31.810Z,73.60
2018-10-17T09:22:00.573Z,72.70
2018-10-17T09:24:28.778Z,72.40
2018-10-17T09:26:57.315Z,71.60
2018-10-17T09:29:25.847Z,69.60
2018-10-17T09:31:54.360Z,69.70
2018-10-17T09:34:22.918Z,68.90
2018-10-17T09:36:51.437Z,68.80
2018-10-17T09:39:19.987Z,68.40
2018-10-17T09:41:48.513Z,66.80
2018-10-17T09:44:17.050Z,65.60
2018-10-17T09:46:45.573Z,65.00
2018-10-17T09:49:14.128Z,64.10
2018-10-17T09:51:42.629Z,63.70
2018-10-17T09:54:11.186Z,63.70
2018-10-17T09:56:39.689Z,63.20
2018-10-17T09:59:08.279Z,62.80
2018-10-17T10:01:42.140Z,62.30
2018-10-17T10:04:11.310Z,61.70
2018-10-17T10:06:39.837Z,61.30
2018-10-17T10:09:09.339Z,60.90
2018-10-17T10:11:38.152Z,59.60
2018-10-17T10:14:06.699Z,59.80
2018-10-17T10:16:35.508Z,59.20
2018-10-17T10:19:04.082Z,59.40
2018-10-17T10:21:32.612Z,57.70
2018-10-17T10:24:01.657Z,57.50
2018-10-17T10:26:30.168Z,56.40
2018-10-17T10:28:59.040Z,55.70
2018-10-17T10:31:27.692Z,55.00
2018-10-17T10:33:56.311Z,53.20
2018-10-17T10:36:24.762Z,53.10
2018-10-17T10:38:53.308Z,52.20
2018-10-17T10:41:21.805Z,51.40
2018-10-17T10:43:50.344Z,50.70
2018-10-17T10:46:19.218Z,50.60
2018-10-17T10:48:48.431Z,50.30
2018-10-17T10:51:17.050Z,49.80
2018-10-17T10:53:45.602Z,48.90
2018-10-17T10:56:14.270Z,48.30
2018-10-17T10:58:43.130Z,47.90
2018-10-17T11:01:12.145Z,47.00
2018-10-17T11:03:41.117Z,45.80
2018-10-17T11:06:09.917Z,45.80
2018-10-17T11:08:38.630Z,45.40
2018-10-17T11:11:07.422Z,45.20
2018-10-17T11:13:36.391Z,43.80
2018-10-17T11:16:05.293Z,43.50
2018-10-17T11:18:33.897Z,43.70
2018-10-17T11:21:02.587Z,44.30
2018-10-17T11:23:31.068Z,44.00
2018-10-17T11:25:59.723Z,43.90
2018-10-17T11:28:28.451Z,44.10
2018-10-17T11:30:56.988Z,43.50
2018-10-17T11:33:25.646Z,42.90
2018-10-17T11:35:55.339Z,42.10
2018-10-17T11:38:23.880Z,41.00
2018-10-17T11:40:52.732Z,40.10
2018-10-17T11:43:21.427Z,39.40
2018-10-17T11:45:50.283Z,39.10
2018-10-17T11:48:18.889Z,39.10
2018-10-17T11:50:48.543Z,38.90
2018-10-17T11:53:18.321Z,38.50
2018-10-17T11:55:47.890Z,38.60
2018-10-17T11:58:17.791Z,38.80
2018-10-17T12:00:47.687Z,38.50
2018-10-17T12:03:17.547Z,37.80
2018-10-17T12:05:46.208Z,37.60
2018-10-17T12:08:14.856Z,37.60
2018-10-17T12:10:43.808Z,37.70
2018-10-17T12:13:12.741Z,37.70
2018-10-17T12:15:43.004Z,37.10
2018-10-17T12:18:12.234Z,36.60
2018-10-17T12:20:41.003Z,36.50
2018-10-17T12:23:09.594Z,36.10
2018-10-17T12:25:39.268Z,35.70
2018-10-17T12:28:08.236Z,35.50
2018-10-17T12:30:36.929Z,35.50
2018-10-17T12:33:06.138Z,35.40
2018-10-17T12:35:35.884Z,35.60
2018-10-17T12:38:04.725Z,35.30
2018-10-17T12:40:34.157Z,35.10
2018-10-17T12:43:03.107Z,35.60
2018-10-17T12:45:32.189Z,35.80
2018-10-17T12:48:01.195Z,36.10
2018-10-17T12:50:30.772Z,36.90
2018-10-17T12:53:00.191Z,37.00
2018-10-17T12:55:28.957Z,36.90
2018-10-17T12:57:57.640Z,36.50
2018-10-17T13:00:27.818Z,36.80
2018-10-17T13:02:57.175Z,36.60
2018-10-17T13:05:40.522Z,36.50
2018-10-17T13:08:09.692Z,36.80
2018-10-17T13:10:38.406Z,37.00
2018-10-17T13:13:07.923Z,36.50
2018-10-17T13:15:37.139Z,36.30
2018-10-17T13:18:06.781Z,35.40
2018-10-17T13:20:36.078Z,34.70
2018-10-17T13:23:04.687Z,34.70
2018-10-17T13:25:34.153Z,35.00
2018-10-17T13:28:03.765Z,34.40
2018-10-17T13:30:33.535Z,33.80
2018-10-17T13:33:03.273Z,34.20
2018-10-17T13:35:32.375Z,34.30
2018-10-17T13:38:01.877Z,34.10
2018-10-17T13:40:31.301Z,33.70
2018-10-17T13:42:59.930Z,33.70
2018-10-17T13:45:29.076Z,33.80
2018-10-17T13:47:58.949Z,33.90
2018-10-17T13:50:27.473Z,33.70
2018-10-17T13:52:56.031Z,33.90
2018-10-17T13:55:24.533Z,33.80
2018-10-17T13:57:53.148Z,33.50
2018-10-17T14:00:21.693Z,34.20
2018-10-17T14:02:50.264Z,34.20
2018-10-17T14:05:19.752Z,34.10
2018-10-17T14:07:49.451Z,33.30
2018-10-17T14:10:17.965Z,33.80
2018-10-17T14:12:46.595Z,33.30
2018-10-17T14:15:15.276Z,33.00
2018-10-17T14:17:44.245Z,32.80
2018-10-17T14:20:13.129Z,32.70
2018-10-17T14:22:41.688Z,32.60
2018-10-17T14:25:10.462Z,32.50
2018-10-17T14:27:39.078Z,32.40
2018-10-17T14:30:08.277Z,32.60
2018-10-17T14:32:37.280Z,32.40
2018-10-17T14:35:08.577Z,32.40
2018-10-17T14:37:37.193Z,32.00
2018-10-17T14:40:06.497Z,32.00
2018-10-17T14:42:35.036Z,31.90
2018-10-17T14:45:04.078Z,31.90
2018-10-17T14:47:32.655Z,32.30
2018-10-17T14:50:01.171Z,32.60
2018-10-17T14:52:29.800Z,33.90
2018-10-17T14:54:58.302Z,33.20
2018-10-17T14:57:26.861Z,33.50
2018-10-17T14:59:56.353Z,34.50
2018-10-17T15:02:26.515Z,34.30
2018-10-17T15:04:55.148Z,34.70
2018-10-17T15:07:23.833Z,35.40
2018-10-17T15:09:52.427Z,35.90
2018-10-17T15:12:21.607Z,35.70
2018-10-17T15:14:50.134Z,35.70
2018-10-17T15:17:19.317Z,36.10
2018-10-17T15:19:49.424Z,35.90
2018-10-17T15:22:20.041Z,36.30
2018-10-17T15:24:50.782Z,36.40
2018-10-17T15:27:21.072Z,36.40
2018-10-17T15:29:51.209Z,36.60
2018-10-17T15:32:21.444Z,36.90
2018-10-17T15:34:51.981Z,37.20
2018-10-17T15:37:22.723Z,37.80
2018-10-17T15:39:53.521Z,39.00
2018-10-17T15:42:23.821Z,38.70
2018-10-17T15:44:54.564Z,39.00
2018-10-17T15:47:25.033Z,39.40
2018-10-17T15:49:54.704Z,39.90
2018-10-17T15:52:23.854Z,40.50
2018-10-17T15:54:52.516Z,41.20
2018-10-17T15:57:21.278Z,42.00
2018-10-17T15:59:50.976Z,42.60
2018-10-17T16:02:20.386Z,43.30
2018-10-17T16:04:49.810Z,43.70
2018-10-17T16:07:19.040Z,44.50
2018-10-17T16:09:48.295Z,45.00
2018-10-17T16:12:17.662Z,45.60
2018-10-17T16:14:47.631Z,46.80
2018-10-17T16:17:16.902Z,46.60
2018-10-17T16:19:46.436Z,46.90
2018-10-17T16:22:15.331Z,47.60
2018-10-17T16:24:45.692Z,48.20
2018-10-17T16:27:14.964Z,49.00
2018-10-17T16:29:44.534Z,49.30
2018-10-17T16:32:14.999Z,49.90
2018-10-17T16:34:45.816Z,50.20
2018-10-17T16:37:15.131Z,50.90
2018-10-17T16:39:43.656Z,51.30
2018-10-17T16:42:13.557Z,51.60
2018-10-17T16:44:43.460Z,52.40
2018-10-17T16:47:12.008Z,52.60
2018-10-17T16:49:40.624Z,53.10
2018-10-17T16:52:09.083Z,53.50
2018-10-17T16:54:37.669Z,53.60
2018-10-17T16:57:09.173Z,54.30
2018-10-17T16:59:41.352Z,55.10
2018-10-17T17:02:11.555Z,55.40
2018-10-17T17:04:42.653Z,55.90
2018-10-17T17:07:11.192Z,56.60
2018-10-17T17:09:39.734Z,57.70
2018-10-17T17:12:08.437Z,57.90
2018-10-17T17:14:37.052Z,57.90
2018-10-17T17:17:05.576Z,58.10
2018-10-17T17:19:34.144Z,58.40
2018-10-17T17:22:02.661Z,59.00
2018-10-17T17:24:31.252Z,58.90
2018-10-17T17:26:59.873Z,59.30
2018-10-17T17:29:28.456Z,59.70
2018-10-17T17:31:57.033Z,59.90
2018-10-17T17:34:25.616Z,60.30
2018-10-17T17:36:54.128Z,60.40
2018-10-17T17:39:23.636Z,61.00
2018-10-17T17:41:52.210Z,61.20
2018-10-17T17:44:20.769Z,62.00
2018-10-17T17:46:49.375Z,65.30
2018-10-17T17:49:18.059Z,65.00
2018-10-17T17:51:46.607Z,64.90
2018-10-17T17:54:15.202Z,65.60
2018-10-17T17:56:43.746Z,65.50
2018-10-17T17:59:12.305Z,65.60
2018-10-17T18:01:40.859Z,65.70
2018-10-17T18:04:09.420Z,65.90
2018-10-17T18:06:38.082Z,67.00
2018-10-17T18:09:09.204Z,69.40
2018-10-17T18:11:37.722Z,69.50
2018-10-17T18:16:42.220Z,69.20
2018-10-17T18:19:10.758Z,68.80
2018-10-17T18:21:39.286Z,69.30
2018-10-17T18:24:07.816Z,69.10
2018-10-17T18:26:36.331Z,70.70
2018-10-17T18:29:04.928Z,70.70
2018-10-17T18:31:33.515Z,70.80
2018-10-17T18:34:02.157Z,70.90
2018-10-17T18:36:31.232Z,71.20
2018-10-17T18:38:59.971Z,71.20
2018-10-17T18:41:28.563Z,71.40
2018-10-17T18:43:57.091Z,72.30
2018-10-17T18:46:25.668Z,72.70
2018-10-17T18:48:54.186Z,73.30
2018-10-17T18:51:22.808Z,73.50
2018-10-17T18:53:51.403Z,73.80
2018-10-17T18:56:19.956Z,73.50
2018-10-17T18:58:48.487Z,73.80
2018-10-17T19:01:17.049Z,74.20
2018-10-17T19:03:46.408Z,73.90
2018-10-17T19:06:15.040Z,74.70
2018-10-17T19:08:43.563Z,74.70
2018-10-17T19:11:12.111Z,75.10
2018-10-17T19:13:40.618Z,75.30
2018-10-17T19:16:09.318Z,75.60
2018-10-17T19:18:38.440Z,75.70
2018-10-17T19:21:07.125Z,76.30
2018-10-17T19:23:35.641Z,76.80
2018-10-17T19:26:04.461Z,77.20
2018-10-17T19:28:34.158Z,77.50
2018-10-17T19:31:02.742Z,77.20
2018-10-17T19:33:31.241Z,77.20
2018-10-17T19:35:59.914Z,77.50
2018-10-17T19:38:30.141Z,78.00
2018-10-17T19:40:58.737Z,78.20
2018-10-17T19:43:27.445Z,78.10
2018-10-17T19:45:55.986Z,78.00
2018-10-17T19:48:24.501Z,78.00
2018-10-17T19:50:53.292Z,78.20
2018-10-17T19:53:21.913Z,78.30
2018-10-17T19:55:50.510Z,78.40
2018-10-17T19:58:19.034Z,79.20
2018-10-17T20:00:47.588Z,79.00
2018-10-17T20:03:16.383Z,79.00
2018-10-17T20:05:44.907Z,79.20
2018-10-17T20:08:13.828Z,79.20
2018-10-17T20:10:42.371Z,79.80
2018-10-17T20:13:10.910Z,80.20
2018-10-17T20:15:39.468Z,80.70
2018-10-17T20:18:08.024Z,80.70
2018-10-17T20:20:36.578Z,81.10
2018-10-17T20:25:25.429Z,81.50
2018-10-17T20:27:54.038Z,83.10
2018-10-17T20:30:22.559Z,82.80
2018-10-17T20:32:51.188Z,83.00
2018-10-17T20:35:19.964Z,84.00
2018-10-17T20:37:48.689Z,84.20
2018-10-17T20:40:17.500Z,85.00
2018-10-17T20:42:47.065Z,84.90
2018-10-17T20:45:15.679Z,84.60
2018-10-17T20:47:44.688Z,84.30
2018-10-17T20:50:13.233Z,84.50
2018-10-17T20:52:41.797Z,84.40
2018-10-17T20:55:10.336Z,84.70
2018-10-17T20:57:38.879Z,84.70
2018-10-17T21:00:08.215Z,85.50
2018-10-17T21:02:36.994Z,85.20
2018-10-17T21:05:06.301Z,85.20
2018-10-17T21:07:34.987Z,85.30
2018-10-17T21:10:03.627Z,85.30
2018-10-17T21:12:32.165Z,85.60
2018-10-17T21:15:00.676Z,85.50
2018-10-17T21:17:29.310Z,85.80
2018-10-17T21:19:57.840Z,85.60
2018-10-17T21:22:26.360Z,85.70
2018-10-17T21:24:54.895Z,85.60
2018-10-17T21:27:23.411Z,86.50
2018-10-17T21:29:51.992Z,86.20
2018-10-17T21:32:20.501Z,87.10
2018-10-17T21:34:49.041Z,86.30
2018-10-17T21:37:17.605Z,86.70
2018-10-17T21:39:46.112Z,86.70
2018-10-17T21:42:14.649Z,87.00
2018-10-17T21:44:43.166Z,86.90
2018-10-17T21:47:11.773Z,87.00
2018-10-17T21:49:40.253Z,87.20
2018-10-17T21:52:08.826Z,87.60
2018-10-17T21:54:37.334Z,87.80
2018-10-17T21:57:06.241Z,87.90
2018-10-17T21:59:34.736Z,88.40
2018-10-17T22:02:03.338Z,88.10
2018-10-17T22:04:31.886Z,88.80
2018-10-17T22:07:00.455Z,88.30
2018-10-17T22:09:29.005Z,88.20
2018-10-17T22:11:57.547Z,88.10
2018-10-17T22:14:26.141Z,88.20
2018-10-17T22:17:00.086Z,88.90
2018-10-17T22:19:30.025Z,88.40
2018-10-17T22:21:58.611Z,88.70
2018-10-17T22:24:27.174Z,88.20
2018-10-17T22:26:55.977Z,88.50
2018-10-17T22:29:24.557Z,88.60
2018-10-17T22:31:53.566Z,88.70
2018-10-17T22:34:22.305Z,88.80
2018-10-17T22:36:50.889Z,88.90
2018-10-17T22:39:19.402Z,89.20
2018-10-17T22:41:47.963Z,89.70
2018-10-17T22:44:16.637Z,89.50
2018-10-17T22:46:45.111Z,89.60
2018-10-17T22:49:13.638Z,89.60
2018-10-17T22:51:42.181Z,90.10
2018-10-17T22:54:10.702Z,90.00
2018-10-17T22:56:39.788Z,90.00
2018-10-17T22:59:08.297Z,90.00
2018-10-17T23:01:37.670Z,89.90
2018-10-17T23:04:06.713Z,90.10
2018-10-17T23:06:35.303Z,90.00
2018-10-17T23:09:06.008Z,90.30
2018-10-17T23:11:34.579Z,90.50
2018-10-17T23:14:03.176Z,90.70
2018-10-17T23:16:31.706Z,90.70
2018-10-17T23:19:00.227Z,90.60
2018-10-17T23:21:28.823Z,90.60
2018-10-17T23:23:57.351Z,91.10
2018-10-17T23:26:25.929Z,90.90
2018-10-17T23:28:54.732Z,90.90
2018-10-17T23:31:24.371Z,91.00
2018-10-17T23:33:53.234Z,90.90
2018-10-17T23:36:22.276Z,90.80
2018-10-17T23:38:51.119Z,90.90
2018-10-17T23:41:19.757Z,90.80
2018-10-17T23:43:48.300Z,90.80
2018-10-17T23:46:16.813Z,91.20
2018-10-17T23:48:45.417Z,91.00
2018-10-17T23:51:13.949Z,91.10
2018-10-17T23:53:42.527Z,91.10
2018-10-17T23:56:11.133Z,91.10
2018-10-17T23:58:39.632Z,91.10
